LEASGCRR

Guest
Details From LEAS - Asturias
To GCRR - Lanzarote
Flight Number -
Tags Generated
Created
Modified
Stats Distance 951 nm / 1,761 km
Max Altitude 0 ft / 0 m
Waypoints 5
Social Downloads 0
Likes 0
Share VATSIM

Download

Looking for another format? Having issues loading an existing format? Contact us
Advertisement - Login to hide

Notes

Generated

Route

LEAS POBOD SONAP LZR GCRR

ID Type Via Altitude Latitude Longitude Leg Dist Tot Dist Heading (true) Name
O LEAS APT - 0 ft / 0 m 43.56657˚ -6.04764˚ - 0 nm - -
POBOD FIX - 0 ft / 0 m 39.64111˚ -8.26639˚ 255 nm 255 nm 204° / 202° -
SONAP FIX - 0 ft / 0 m 36.50000˚ -10.00000˚ 205 nm 461 nm 204° / 203° -
LZR VOR - 0 ft / 0 m 29.16600˚ -13.51073˚ 474 nm 936 nm 203° / 201° LANZAROTE VOR-DME
O GCRR APT - 0 ft / 0 m 28.93584˚ -13.61080˚ 14 nm 951 nm 201° / 201° -

Altitude Profile

Advertisement - Login to hide

Weather


0- 5 10 15 20 25 30 35+ Temperature / ° C

Clouds and Precipitation
Forecast for 2018-05-23 00:00 UTC. Updated 4 hours ago

Ground ~20,000 ft ~40,000 ft Winds

LEAS

Details ICAO LEAS (OVD)
Name Asturias
Region Spain
Timezone Europe/Madrid (UTC+2.0)
Stats Elevation 416 ft / 127 m (AMSL)
Location 43.563496° -6.034670°
Runways 1
Magnetic Variation 1.571° W

METAR

LEAS 230230Z AUTO VRB02KT 1600 BR OVC003/// 14/14 Q1017

Decode

TAF

TAF LEAS 230200Z 2303/2403 VRB05KT 8000 SCT005 TX20/2314Z TN11/2305Z TEMPO 2303/2308 3000 BR TEMPO 2303/2308 1500 BCFG BKN003 PROB30 TEMPO 2303/2308 0800 FG BKN002 BECMG 2310/2312 06010KT PROB40 TEMPO 2312/2318 SCT025TCU

Decode

Departure Runways

ID Width Length Bearing (true) Bearing (mag) Surface Threshold Offset Overrun Length
11 148 ft / 45 m 7,216 ft / 2,200 m 108.09° 109.66° Asphalt 0 ft / 0 m 164 ft / 50 m
29 148 ft / 45 m 7,216 ft / 2,200 m 288.10° 289.67° Asphalt 0 ft / 0 m 164 ft / 50 m

GCRR

Details ICAO GCRR (ACE)
Name Lanzarote
Region Canary Islands
Timezone Atlantic/Canary (UTC+1.0)
Stats Elevation 0 ft / 0 m (AMSL)
Location 28.945466° -13.605223°
Runways 1
Magnetic Variation 3.926° W

METAR

Not found

TAF

TAF GCRR 230200Z 2303/2403 34006KT 9999 SCT025 TX23/2314Z TN14/2305Z TEMPO 2310/2319 14010KT PROB30 TEMPO 2312/2316 24012KT

Decode

Destination Runways

ID Width Length Bearing (true) Bearing (mag) Surface Threshold Offset Overrun Length
03 148 ft / 45 m 7,893 ft / 2,406 m 26.90° 30.83° Asphalt 197 ft / 60 m 197 ft / 60 m
21 148 ft / 45 m 7,893 ft / 2,406 m 206.91° 210.84° Asphalt 197 ft / 60 m 197 ft / 60 m

Approach Navaids

Runway Type Ident Frequency Range Bearing (true) Bearing (mag) Slope Elevation
03 Localiser IRR 109.10 MHz 18 nm / 33 km 26.90° 30.83° - 47 ft / 14 m (AMSL)
03 Glidescope IRR 109.10 MHz 10 nm / 19 km 26.90° 30.83° 3.00° 0 ft / 0 m (AMSL)
03 DME IRR 109.10 MHz 18 nm / 33 km - - - 36 ft / 11 m (AMSL)

Popular Alternatives